Time;durP1;ratioP1;P1;durP2;ratioP2;P2;SDS_P1;SDS_P2;PMS_P1;PMS_P2;Temp;Humidity;BMP_temperature;BMP_pressure;BME280_temperature;BME280_humidity;BME280_pressure;Samples;Min_cycle;Max_cycle;Signal;HPM_P1;HPM_P2
2023/08/02 00:00:07;;;;;;;1.23;1.10;;;19.00;92.70;;;;;;5063704;28;20074;-78
2023/08/02 00:02:33;;;;;;;4.43;1.35;;;19.00;92.70;;;;;;5065366;28;20074;-78
2023/08/02 00:04:58;;;;;;;2.55;1.10;;;19.00;92.80;;;;;;5066572;28;20037;-78
2023/08/02 00:07:24;;;;;;;3.70;1.20;;;19.10;92.80;;;;;;5066573;28;20025;-78
2023/08/02 00:09:50;;;;;;;2.20;1.40;;;19.00;92.80;;;;;;5064755;28;20517;-78
2023/08/02 00:12:15;;;;;;;2.75;1.33;;;19.00;92.80;;;;;;5064657;28;20060;-77
2023/08/02 00:14:41;;;;;;;2.75;1.10;;;19.10;92.80;;;;;;5061738;28;20032;-78
2023/08/02 00:17:06;;;;;;;4.32;1.60;;;19.00;92.80;;;;;;5063167;28;20025;-78
2023/08/02 00:19:32;;;;;;;7.82;1.38;;;19.00;92.90;;;;;;5060410;28;20027;-78
2023/08/02 00:21:58;;;;;;;5.45;1.58;;;19.00;92.80;;;;;;5065950;28;20104;-78
2023/08/02 00:24:23;;;;;;;4.30;1.33;;;19.00;92.90;;;;;;5063453;28;20027;-78
2023/08/02 00:26:49;;;;;;;1.65;1.30;;;19.00;92.90;;;;;;5060916;28;20086;-78
2023/08/02 00:29:15;;;;;;;1.92;1.20;;;19.00;93.10;;;;;;5062207;28;20040;-78
2023/08/02 00:31:40;;;;;;;3.00;1.30;;;19.00;92.90;;;;;;5057057;28;20390;-78
2023/08/02 00:34:06;;;;;;;4.95;1.38;;;19.00;92.90;;;;;;5056873;28;20033;-78
2023/08/02 00:36:31;;;;;;;2.88;1.50;;;19.00;92.90;;;;;;5065544;28;20013;-78
2023/08/02 00:39:00;;;;;;;1.30;1.20;;;19.00;92.90;;;;;;5059225;28;20025;-77
2023/08/02 00:41:25;;;;;;;1.95;1.23;;;19.00;92.90;;;;;;5063291;28;20094;-78
2023/08/02 00:43:51;;;;;;;3.38;1.30;;;19.00;93.00;;;;;;5058032;28;20109;-78
2023/08/02 00:46:19;;;;;;;6.50;1.25;;;19.00;93.30;;;;;;5063093;28;20515;-78
2023/08/02 00:48:46;;;;;;;2.10;1.48;;;19.00;93.00;;;;;;5055416;28;20028;-77
2023/08/02 00:51:13;;;;;;;1.73;1.10;;;19.00;93.00;;;;;;5059257;28;20380;-79
2023/08/02 00:53:39;;;;;;;2.13;1.30;;;19.00;93.00;;;;;;5061788;28;20158;-78
2023/08/02 00:56:05;;;;;;;1.83;1.35;;;19.00;93.00;;;;;;5062809;28;20108;-78
2023/08/02 00:58:32;;;;;;;2.83;1.73;;;19.00;93.00;;;;;;5060514;28;20130;-78
2023/08/02 01:01:07;;;;;;;3.78;1.33;;;19.00;93.00;;;;;;5056941;28;20032;-78
2023/08/02 01:03:44;;;;;;;2.25;1.42;;;19.00;93.00;;;;;;5057392;28;20504;-78
2023/08/02 01:06:24;;;;;;;2.55;1.45;;;19.00;93.10;;;;;;5055081;28;20056;-78
2023/08/02 01:08:59;;;;;;;4.10;1.70;;;19.00;93.10;;;;;;5059778;28;20439;-78
2023/08/02 01:11:32;;;;;;;1.98;1.55;;;19.00;93.10;;;;;;5063021;28;20497;-78
2023/08/02 01:13:58;;;;;;;3.08;1.58;;;19.00;93.10;;;;;;5065491;28;20029;-78
2023/08/02 01:16:25;;;;;;;2.38;1.52;;;19.00;93.10;;;;;;5065485;28;20025;-78
2023/08/02 01:18:51;;;;;;;8.32;1.52;;;19.00;93.10;;;;;;5060041;28;20017;-78
2023/08/02 01:21:16;;;;;;;4.47;1.58;;;19.00;93.10;;;;;;5061696;28;20036;-77
2023/08/02 01:23:43;;;;;;;1.77;1.38;;;19.00;93.10;;;;;;5060470;28;20056;-78
2023/08/02 01:26:09;;;;;;;1.98;1.50;;;19.00;93.10;;;;;;5068573;28;20025;-78
2023/08/02 01:28:42;;;;;;;5.93;1.40;;;19.00;93.20;;;;;;5072195;28;20500;-78
2023/08/02 01:31:10;;;;;;;2.13;1.60;;;19.00;93.10;;;;;;5063728;28;20040;-78
2023/08/02 01:33:44;;;;;;;1.70;1.40;;;19.00;93.20;;;;;;5061787;28;20039;-78
2023/08/02 01:36:10;;;;;;;5.20;1.50;;;19.00;93.20;;;;;;5062478;28;20405;-78
2023/08/02 01:38:36;;;;;;;2.38;1.48;;;19.00;93.20;;;;;;5071978;28;20028;-78
2023/08/02 01:41:02;;;;;;;3.28;1.92;;;19.00;93.20;;;;;;5069631;28;20033;-78
2023/08/02 01:43:27;;;;;;;3.25;1.45;;;19.00;93.20;;;;;;5067577;28;20534;-78
2023/08/02 01:45:53;;;;;;;3.53;1.90;;;19.00;93.20;;;;;;5066032;28;20060;-78
2023/08/02 01:48:18;;;;;;;2.88;1.80;;;19.00;93.20;;;;;;5064324;28;20074;-78
2023/08/02 01:50:44;;;;;;;1.52;1.42;;;19.00;93.20;;;;;;5064753;28;20508;-78
2023/08/02 01:53:10;;;;;;;3.33;1.50;;;19.00;93.20;;;;;;5065834;28;20470;-78
2023/08/02 01:55:36;;;;;;;3.20;1.58;;;19.00;93.20;;;;;;5068981;28;20024;-78
2023/08/02 01:58:02;;;;;;;2.95;2.00;;;19.00;93.20;;;;;;5066251;28;20485;-78
2023/08/02 02:00:27;;;;;;;2.90;1.88;;;19.00;93.20;;;;;;5099174;27;20070;-78
2023/08/02 02:02:53;;;;;;;2.58;1.77;;;19.00;93.20;;;;;;5064238;28;20025;-78
2023/08/02 02:05:18;;;;;;;3.42;2.10;;;19.00;93.30;;;;;;5063907;28;20507;-78
2023/08/02 02:07:44;;;;;;;2.58;2.20;;;18.90;93.20;;;;;;5064973;28;20028;-78
2023/08/02 02:10:09;;;;;;;3.75;1.73;;;18.90;93.20;;;;;;5066568;28;20086;-77
2023/08/02 02:12:35;;;;;;;3.40;2.10;;;18.90;93.20;;;;;;5065895;28;20038;-78
2023/08/02 02:15:01;;;;;;;7.95;2.05;;;19.00;93.30;;;;;;5065275;28;20017;-79
2023/08/02 02:17:26;;;;;;;3.13;1.95;;;19.00;93.30;;;;;;5065775;28;20027;-78
2023/08/02 02:19:52;;;;;;;5.85;1.88;;;19.00;93.30;;;;;;5063472;28;20052;-78
2023/08/02 02:22:17;;;;;;;4.25;1.95;;;18.90;93.20;;;;;;5069992;28;20071;-78
2023/08/02 02:24:43;;;;;;;3.50;2.10;;;18.90;93.20;;;;;;5066014;28;20103;-78
2023/08/02 02:27:09;;;;;;;3.30;1.98;;;19.00;93.30;;;;;;5066375;28;20067;-79
2023/08/02 02:29:34;;;;;;;4.55;2.20;;;18.90;93.20;;;;;;5063944;28;20067;-78
2023/08/02 02:32:00;;;;;;;9.02;2.47;;;18.90;93.20;;;;;;5063338;28;20108;-77
2023/08/02 02:34:25;;;;;;;3.72;2.35;;;18.90;93.20;;;;;;5069313;28;20068;-78
2023/08/02 02:36:51;;;;;;;3.85;2.53;;;18.90;93.30;;;;;;5059333;28;20441;-78
2023/08/02 02:39:16;;;;;;;8.30;2.28;;;18.90;93.30;;;;;;5069689;28;20028;-79
2023/08/02 02:41:42;;;;;;;3.15;1.88;;;18.90;93.30;;;;;;5069683;28;20380;-78
2023/08/02 02:44:08;;;;;;;5.35;2.28;;;18.90;93.30;;;;;;5062951;28;20021;-78
2023/08/02 02:46:33;;;;;;;10.82;2.50;;;18.90;93.30;;;;;;5064474;28;20025;-78
2023/08/02 02:48:59;;;;;;;3.65;1.85;;;18.90;93.30;;;;;;5065961;28;20028;-79
2023/08/02 02:51:24;;;;;;;6.90;1.90;;;18.90;93.20;;;;;;5068472;28;20036;-79
2023/08/02 02:53:50;;;;;;;5.40;2.10;;;18.90;93.30;;;;;;5069930;28;20024;-78
2023/08/02 02:56:15;;;;;;;3.40;2.45;;;18.90;93.30;;;;;;5067525;28;20060;-79
2023/08/02 02:58:41;;;;;;;5.68;2.00;;;18.90;93.30;;;;;;5066175;28;20385;-79
2023/08/02 03:01:08;;;;;;;4.07;2.33;;;18.90;93.30;;;;;;5060027;28;20092;-79
2023/08/02 03:03:33;;;;;;;2.83;1.90;;;18.90;93.30;;;;;;5058510;28;20028;-79
2023/08/02 03:05:59;;;;;;;5.25;2.40;;;18.90;93.30;;;;;;5065068;28;20017;-79
2023/08/02 03:08:25;;;;;;;3.72;1.92;;;18.90;93.30;;;;;;5068816;28;20470;-79
2023/08/02 03:10:50;;;;;;;5.25;2.20;;;18.90;93.30;;;;;;5068855;28;20020;-79
2023/08/02 03:13:16;;;;;;;11.27;2.50;;;18.90;93.30;;;;;;5063360;28;20017;-79
2023/08/02 03:15:41;;;;;;;5.57;2.17;;;18.90;93.20;;;;;;5065626;28;20477;-79
2023/08/02 03:18:07;;;;;;;3.97;2.25;;;18.90;93.30;;;;;;5064730;28;20074;-78
2023/08/02 03:20:39;;;;;;;4.22;2.20;;;18.90;93.30;;;;;;5063862;28;20020;-79
2023/08/02 03:23:05;;;;;;;4.07;2.55;;;18.90;93.20;;;;;;5073193;28;20025;-78
2023/08/02 03:25:31;;;;;;;7.00;2.53;;;18.90;93.20;;;;;;5067366;28;20068;-79
2023/08/02 03:27:56;;;;;;;3.50;2.03;;;18.90;93.20;;;;;;5067658;28;20029;-78
2023/08/02 03:30:22;;;;;;;5.75;2.40;;;18.90;93.30;;;;;;5058245;28;20025;-79
2023/08/02 03:32:47;;;;;;;9.90;2.60;;;18.90;93.20;;;;;;5059212;28;20158;-79
2023/08/02 03:35:13;;;;;;;6.88;2.63;;;18.90;93.20;;;;;;5053795;28;20541;-79
2023/08/02 03:37:39;;;;;;;4.03;2.45;;;18.90;93.20;;;;;;5062942;28;20389;-78
2023/08/02 03:40:05;;;;;;;4.03;2.55;;;18.90;93.20;;;;;;5068919;28;20028;-78
2023/08/02 03:42:30;;;;;;;3.95;2.13;;;18.90;93.20;;;;;;5064273;28;20024;-79
2023/08/02 03:44:56;;;;;;;3.22;2.03;;;18.90;93.20;;;;;;5072920;28;20028;-79
2023/08/02 03:47:21;;;;;;;7.05;2.15;;;18.90;93.20;;;;;;5066147;28;20016;-79
2023/08/02 03:49:47;;;;;;;3.60;2.40;;;18.90;93.20;;;;;;5059984;28;20035;-78
2023/08/02 03:52:13;;;;;;;5.50;2.08;;;18.90;93.20;;;;;;5051716;28;20029;-78
2023/08/02 03:54:38;;;;;;;7.20;2.33;;;18.90;93.20;;;;;;5069206;28;20029;-79
2023/08/02 03:57:04;;;;;;;9.73;2.13;;;18.90;93.20;;;;;;5068114;28;20031;-79
2023/08/02 03:59:30;;;;;;;9.27;2.97;;;18.90;93.20;;;;;;5062741;28;20098;-78
2023/08/02 04:01:55;;;;;;;3.55;2.42;;;18.90;93.30;;;;;;5061712;28;20094;-79
2023/08/02 04:04:21;;;;;;;6.38;2.60;;;18.90;93.30;;;;;;5056556;28;20039;-79
2023/08/02 04:06:47;;;;;;;4.07;2.50;;;18.90;93.30;;;;;;5057780;28;20024;-78
2023/08/02 04:09:12;;;;;;;6.18;2.67;;;18.90;93.30;;;;;;5070458;28;20024;-79
2023/08/02 04:11:38;;;;;;;5.53;2.53;;;18.80;93.20;;;;;;5067902;28;20469;-78
2023/08/02 04:14:04;;;;;;;5.38;2.63;;;18.80;93.30;;;;;;5067535;28;20020;-78
2023/08/02 04:16:29;;;;;;;4.97;2.30;;;18.80;93.30;;;;;;5063417;28;20044;-79
2023/08/02 04:18:55;;;;;;;5.93;2.33;;;18.90;93.30;;;;;;5061254;28;20015;-79
2023/08/02 04:21:20;;;;;;;7.10;2.05;;;18.90;93.30;;;;;;5056804;28;20017;-79
2023/08/02 04:23:49;;;;;;;4.50;2.58;;;18.90;93.30;;;;;;5066614;28;20078;-78
2023/08/02 04:26:15;;;;;;;7.72;3.10;;;18.80;93.30;;;;;;5067869;28;20058;-79
2023/08/02 04:28:40;;;;;;;4.25;2.08;;;18.80;93.30;;;;;;5066327;28;20056;-79
2023/08/02 04:31:06;;;;;;;9.35;2.25;;;18.80;93.30;;;;;;5064987;28;20048;-79
2023/08/02 04:33:32;;;;;;;6.45;2.45;;;18.90;93.30;;;;;;5060679;28;20354;-79
2023/08/02 04:36:01;;;;;;;7.72;2.92;;;18.80;93.30;;;;;;5063691;28;20081;-78
2023/08/02 04:38:27;;;;;;;11.48;2.70;;;18.80;93.30;;;;;;5066224;28;20032;-79
2023/08/02 04:40:53;;;;;;;4.82;2.80;;;18.80;93.30;;;;;;5065868;28;20029;-79
2023/08/02 04:43:18;;;;;;;10.65;2.83;;;18.80;93.30;;;;;;5065368;28;20029;-79
2023/08/02 04:45:44;;;;;;;9.20;2.83;;;18.80;93.70;;;;;;5070504;28;20032;-79
2023/08/02 04:48:09;;;;;;;9.15;2.83;;;18.90;93.30;;;;;;5062745;28;20027;-79
2023/08/02 04:50:35;;;;;;;5.40;2.55;;;18.80;93.30;;;;;;5060469;28;20024;-78
2023/08/02 04:53:01;;;;;;;8.10;2.90;;;18.80;93.30;;;;;;5069616;28;20035;-79
2023/08/02 04:55:26;;;;;;;5.80;2.88;;;18.80;93.40;;;;;;5064963;28;20013;-78
2023/08/02 04:57:52;;;;;;;5.18;2.50;;;18.80;93.40;;;;;;5065962;28;20121;-78
2023/08/02 05:00:18;;;;;;;6.25;3.05;;;18.80;93.30;;;;;;5066796;28;20021;-79
2023/08/02 05:02:44;;;;;;;7.10;3.08;;;18.80;93.40;;;;;;5066475;28;20055;-79
2023/08/02 05:05:10;;;;;;;4.18;2.90;;;18.80;93.30;;;;;;5060063;28;20119;-78
2023/08/02 05:07:37;;;;;;;12.05;3.13;;;18.80;93.40;;;;;;5070693;28;20526;-78
2023/08/02 05:10:04;;;;;;;8.30;3.00;;;18.80;93.30;;;;;;5069142;28;20020;-78
2023/08/02 05:12:39;;;;;;;6.50;2.70;;;18.80;93.40;;;;;;5066459;28;20090;-78
2023/08/02 05:15:06;;;;;;;4.43;2.28;;;18.80;93.40;;;;;;5069837;28;20101;-78
2023/08/02 05:17:32;;;;;;;5.47;3.00;;;18.80;93.40;;;;;;5068507;28;20120;-79
2023/08/02 05:19:58;;;;;;;4.43;2.80;;;18.80;93.40;;;;;;5065612;28;20107;-78
2023/08/02 05:22:23;;;;;;;5.20;3.08;;;18.80;93.40;;;;;;5066482;28;20029;-78
2023/08/02 05:24:50;;;;;;;6.63;3.33;;;18.80;93.40;;;;;;5067175;28;20028;-78
2023/08/02 05:27:16;;;;;;;9.10;2.95;;;18.80;93.70;;;;;;5063377;28;20048;-78
2023/08/02 05:29:41;;;;;;;5.50;2.58;;;18.80;93.50;;;;;;5060950;28;20079;-79
2023/08/02 05:32:07;;;;;;;4.70;2.63;;;18.80;93.50;;;;;;5069296;28;20031;-78
2023/08/02 05:34:33;;;;;;;6.72;2.60;;;18.80;93.50;;;;;;5065559;28;20017;-79
2023/08/02 05:36:58;;;;;;;5.90;2.80;;;18.80;93.50;;;;;;5069342;28;20063;-79
2023/08/02 05:39:24;;;;;;;8.55;3.17;;;18.80;93.50;;;;;;5064995;28;20029;-79
2023/08/02 05:41:49;;;;;;;5.28;2.85;;;18.80;93.50;;;;;;5064536;28;20074;-79
2023/08/02 05:44:15;;;;;;;4.45;2.80;;;18.80;93.50;;;;;;5066951;28;20142;-78
2023/08/02 05:46:41;;;;;;;9.93;3.30;;;18.80;93.50;;;;;;5059551;28;20028;-79
2023/08/02 05:49:06;;;;;;;7.47;3.22;;;18.80;93.50;;;;;;5068656;28;20484;-79
2023/08/02 05:51:32;;;;;;;5.82;3.25;;;18.80;93.60;;;;;;5068004;28;20024;-79
2023/08/02 05:53:58;;;;;;;4.80;2.90;;;18.80;93.60;;;;;;5068871;28;20032;-79
2023/08/02 05:56:23;;;;;;;8.38;3.35;;;18.80;93.60;;;;;;5053721;28;20024;-78
2023/08/02 05:58:49;;;;;;;5.28;3.50;;;18.80;93.60;;;;;;5063473;28;20528;-80
2023/08/02 06:01:14;;;;;;;5.93;3.28;;;18.80;93.70;;;;;;5060891;28;20047;-79
2023/08/02 06:03:40;;;;;;;7.47;3.05;;;18.80;93.60;;;;;;5068922;28;20441;-80
2023/08/02 06:06:05;;;;;;;7.63;3.42;;;18.80;93.70;;;;;;5072354;28;20023;-80
2023/08/02 06:08:31;;;;;;;7.93;3.47;;;18.80;93.70;;;;;;5074340;28;20479;-79
2023/08/02 06:10:57;;;;;;;10.18;3.20;;;18.80;93.70;;;;;;5067281;28;20039;-79
2023/08/02 06:13:22;;;;;;;7.50;3.10;;;18.80;93.70;;;;;;5069929;28;20035;-79
2023/08/02 06:15:49;;;;;;;6.35;3.25;;;18.80;93.70;;;;;;5064892;28;20482;-80
2023/08/02 06:18:14;;;;;;;5.32;2.97;;;18.80;93.70;;;;;;5071866;28;20032;-80
2023/08/02 06:20:40;;;;;;;9.10;3.80;;;18.80;93.80;;;;;;5071686;28;20032;-80
2023/08/02 06:23:05;;;;;;;11.30;3.10;;;18.80;93.70;;;;;;5071357;28;20508;-80
2023/08/02 06:25:31;;;;;;;8.73;3.03;;;18.80;93.80;;;;;;5064650;28;20028;-79
2023/08/02 06:27:57;;;;;;;5.10;3.15;;;18.80;93.80;;;;;;5065940;28;20025;-80
2023/08/02 06:30:22;;;;;;;8.55;3.40;;;18.80;93.90;;;;;;5060559;28;20433;-81
2023/08/02 06:32:48;;;;;;;6.00;3.20;;;18.80;93.80;;;;;;5067535;28;20038;-80
2023/08/02 06:35:13;;;;;;;4.63;3.05;;;18.80;93.90;;;;;;5057957;28;20036;-79
2023/08/02 06:37:39;;;;;;;6.45;3.08;;;18.80;93.80;;;;;;5072662;28;20100;-80
2023/08/02 06:40:05;;;;;;;6.13;3.65;;;18.80;93.80;;;;;;5065076;28;20032;-80
2023/08/02 06:42:31;;;;;;;12.38;3.42;;;18.80;93.90;;;;;;5067373;28;20374;-80
2023/08/02 06:44:57;;;;;;;9.82;3.30;;;18.80;94.00;;;;;;5063604;28;20021;-80
2023/08/02 06:47:22;;;;;;;8.75;3.58;;;18.80;94.00;;;;;;5058724;28;20488;-80
2023/08/02 06:49:48;;;;;;;13.90;3.88;;;18.80;94.00;;;;;;5064160;28;20104;-80
2023/08/02 06:52:14;;;;;;;5.82;3.85;;;18.80;94.00;;;;;;5078997;28;20066;-80
2023/08/02 06:54:40;;;;;;;11.52;3.90;;;18.80;94.00;;;;;;5072661;28;20061;-80
2023/08/02 06:57:06;;;;;;;8.13;3.80;;;18.80;94.00;;;;;;5068254;28;20016;-80
2023/08/02 06:59:31;;;;;;;8.50;3.65;;;18.80;94.00;;;;;;5064008;28;20017;-79
2023/08/02 07:01:57;;;;;;;11.88;4.20;;;18.80;94.00;;;;;;5062743;28;20043;-80
2023/08/02 07:04:22;;;;;;;7.45;4.25;;;18.80;94.10;;;;;;5061845;28;20115;-80
2023/08/02 07:06:48;;;;;;;11.60;3.90;;;18.80;94.10;;;;;;5070070;28;20047;-79
2023/08/02 07:09:14;;;;;;;6.70;3.40;;;18.80;94.10;;;;;;5071387;28;20250;-80
2023/08/02 07:11:40;;;;;;;9.02;3.85;;;18.80;94.20;;;;;;5064200;28;20045;-80
2023/08/02 07:14:06;;;;;;;6.80;4.30;;;18.80;94.20;;;;;;5067547;28;20043;-80
2023/08/02 07:16:32;;;;;;;6.35;3.15;;;18.80;94.10;;;;;;5067073;28;20071;-80
2023/08/02 07:19:00;;;;;;;9.32;3.47;;;18.80;94.20;;;;;;5067029;28;20032;-80
2023/08/02 07:21:25;;;;;;;8.07;3.47;;;18.80;94.20;;;;;;5071623;28;20024;-79
2023/08/02 07:23:51;;;;;;;8.82;3.65;;;18.80;94.40;;;;;;5065521;28;20051;-80
2023/08/02 07:26:17;;;;;;;10.77;3.88;;;18.80;94.20;;;;;;5101505;27;20024;-80
2023/08/02 07:28:43;;;;;;;8.38;3.67;;;18.80;94.20;;;;;;5067340;28;20129;-79
2023/08/02 07:31:10;;;;;;;6.78;4.00;;;18.80;94.20;;;;;;5066664;28;20027;-80
2023/08/02 07:33:36;;;;;;;7.00;3.47;;;18.80;94.20;;;;;;5061497;28;20084;-79
2023/08/02 07:36:02;;;;;;;10.50;4.22;;;18.80;94.10;;;;;;5105771;27;20103;-78
2023/08/02 07:38:28;;;;;;;11.02;4.55;;;18.80;94.10;;;;;;5066478;28;20481;-79
2023/08/02 07:40:54;;;;;;;6.60;3.63;;;18.80;94.10;;;;;;5068897;28;20102;-79
2023/08/02 07:43:20;;;;;;;6.03;3.13;;;18.80;94.20;;;;;;5074017;28;20131;-79
2023/08/02 07:45:45;;;;;;;5.85;3.30;;;18.80;94.20;;;;;;5064201;28;20485;-80
2023/08/02 07:48:11;;;;;;;5.85;3.22;;;18.80;94.20;;;;;;5064826;28;20024;-80
2023/08/02 07:50:37;;;;;;;5.40;3.03;;;18.80;94.20;;;;;;5068437;28;20039;-80
2023/08/02 07:53:02;;;;;;;5.55;3.22;;;18.80;94.20;;;;;;5099555;27;20038;-78
2023/08/02 07:55:28;;;;;;;5.10;2.88;;;18.80;94.20;;;;;;5066966;28;20036;-80
2023/08/02 07:57:53;;;;;;;4.00;2.60;;;18.80;94.30;;;;;;5067112;28;20017;-80
2023/08/02 08:00:19;;;;;;;3.83;2.47;;;18.80;94.40;;;;;;5062298;28;20078;-80
2023/08/02 08:02:45;;;;;;;5.28;2.75;;;18.80;94.30;;;;;;5070360;28;20150;-80
2023/08/02 08:05:11;;;;;;;4.00;2.40;;;18.80;94.30;;;;;;5071193;28;20491;-79
2023/08/02 08:07:36;;;;;;;5.65;2.50;;;18.80;94.30;;;;;;5067219;28;20060;-79
2023/08/02 08:10:04;;;;;;;4.72;2.50;;;18.80;94.40;;;;;;5065231;28;20021;-78
2023/08/02 08:12:30;;;;;;;4.57;2.78;;;18.80;94.70;;;;;;5068646;28;20035;-79
2023/08/02 08:14:56;;;;;;;4.97;2.58;;;18.80;94.40;;;;;;5068615;28;20112;-80
2023/08/02 08:17:21;;;;;;;3.75;2.70;;;18.80;94.40;;;;;;5071954;28;20016;-80
2023/08/02 08:19:48;;;;;;;4.10;2.17;;;18.80;94.70;;;;;;5069817;28;20060;-81
2023/08/02 08:22:15;;;;;;;2.35;1.77;;;18.80;95.00;;;;;;5070410;28;20036;-79
2023/08/02 08:24:41;;;;;;;6.10;2.78;;;18.80;94.70;;;;;;5068810;28;20778;-79
2023/08/02 08:27:07;;;;;;;1.38;1.08;;;18.80;94.90;;;;;;5068477;28;20057;-79
2023/08/02 08:29:32;;;;;;;5.93;2.10;;;18.80;95.10;;;;;;5067420;28;20082;-81
2023/08/02 08:31:58;;;;;;;4.72;2.13;;;18.80;95.00;;;;;;5093118;28;20060;-80
2023/08/02 08:34:24;;;;;;;3.85;2.13;;;18.30;95.00;;;;;;5065041;28;20025;-80
2023/08/02 08:36:49;;;;;;;6.00;2.30;;;18.80;94.90;;;;;;5066497;28;20115;-79
2023/08/02 08:39:15;;;;;;;4.10;2.42;;;18.80;94.80;;;;;;5066691;28;20477;-79
2023/08/02 08:41:40;;;;;;;4.90;2.90;;;18.80;95.10;;;;;;5067666;28;20553;-80
2023/08/02 08:44:06;;;;;;;4.45;2.08;;;18.80;95.10;;;;;;5064759;28;20078;-80
2023/08/02 08:46:33;;;;;;;4.47;1.95;;;18.80;95.10;;;;;;5066837;28;20028;-79
2023/08/02 08:49:00;;;;;;;4.55;2.25;;;18.80;95.00;;;;;;5069163;28;20028;-80
2023/08/02 08:51:29;;;;;;;4.43;2.65;;;18.80;95.00;;;;;;5072104;28;20484;-79
2023/08/02 08:53:59;;;;;;;4.82;2.50;;;18.80;95.20;;;;;;5067457;28;20039;-81
2023/08/02 08:56:26;;;;;;;5.60;2.10;;;18.80;95.30;;;;;;5069354;28;20032;-80
2023/08/02 08:58:53;;;;;;;5.10;1.95;;;18.80;94.90;;;;;;5060612;28;20037;-79
2023/08/02 09:01:19;;;;;;;4.57;2.00;;;18.80;95.00;;;;;;5068729;28;20397;-80
2023/08/02 09:03:45;;;;;;;7.00;2.70;;;18.80;94.90;;;;;;5069376;28;20036;-81
2023/08/02 09:06:13;;;;;;;3.70;2.10;;;18.80;95.10;;;;;;5067346;28;20033;-80
2023/08/02 09:08:47;;;;;;;6.25;1.65;;;18.80;95.10;;;;;;5066797;28;20032;-81
2023/08/02 09:11:15;;;;;;;4.35;2.17;;;18.80;94.90;;;;;;5060463;28;20082;-80
2023/08/02 09:13:41;;;;;;;4.13;2.20;;;18.80;95.20;;;;;;5092515;28;20037;-81
2023/08/02 09:16:11;;;;;;;4.95;2.17;;;18.80;95.10;;;;;;5057443;28;20112;-81
2023/08/02 09:18:42;;;;;;;3.50;2.05;;;18.80;95.30;;;;;;5074276;28;20496;-80
2023/08/02 09:21:09;;;;;;;5.95;2.35;;;18.80;95.00;;;;;;5069960;28;20526;-80
2023/08/02 09:23:35;;;;;;;6.90;2.35;;;18.80;95.00;;;;;;5068308;28;20486;-80
2023/08/02 09:26:13;;;;;;;3.95;1.95;;;18.80;95.10;;;;;;5063783;28;20027;-80
2023/08/02 09:28:39;;;;;;;3.78;2.38;;;18.80;95.00;;;;;;5061709;28;20051;-79
2023/08/02 09:31:16;;;;;;;4.63;2.20;;;18.80;95.00;;;;;;5058841;28;20049;-78
2023/08/02 09:33:49;;;;;;;6.22;2.70;;;18.80;95.10;;;;;;5071683;28;20043;-78
2023/08/02 09:36:31;;;;;;;4.18;2.40;;;18.80;95.10;;;;;;5072061;28;20025;-80
2023/08/02 09:39:18;;;;;;;6.47;2.72;;;18.80;95.10;;;;;;5066206;28;20041;-79
2023/08/02 09:41:44;;;;;;;4.85;2.30;;;18.80;95.10;;;;;;5066058;28;20016;-79
2023/08/02 09:44:21;;;;;;;4.57;2.72;;;18.80;95.10;;;;;;5066144;28;20025;-79
2023/08/02 09:46:47;;;;;;;7.93;2.55;;;18.80;95.10;;;;;;5061328;28;20024;-78
2023/08/02 09:49:17;;;;;;;4.15;2.63;;;18.90;95.20;;;;;;5071192;28;20028;-79
2023/08/02 09:51:44;;;;;;;2.85;2.10;;;18.80;95.10;;;;;;5077598;28;20034;-79
2023/08/02 09:54:11;;;;;;;4.25;2.72;;;18.80;95.10;;;;;;5068169;28;20499;-79
2023/08/02 09:56:39;;;;;;;3.28;2.45;;;18.90;95.10;;;;;;5066913;28;20095;-78
2023/08/02 09:59:05;;;;;;;5.75;2.05;;;18.80;95.20;;;;;;5066655;28;20216;-78
2023/08/02 10:01:32;;;;;;;6.00;2.60;;;18.80;95.20;;;;;;5065814;28;20048;-78
2023/08/02 10:04:01;;;;;;;4.32;2.58;;;18.90;95.30;;;;;;5068990;28;20548;-78
2023/08/02 10:06:37;;;;;;;6.72;2.40;;;18.90;95.30;;;;;;5070677;28;20040;-78
2023/08/02 10:09:08;;;;;;;4.28;2.55;;;18.80;95.30;;;;;;5074322;28;20045;-79
2023/08/02 10:11:43;;;;;;;5.65;2.83;;;18.80;95.30;;;;;;5067926;28;20033;-78
2023/08/02 10:14:09;;;;;;;5.93;2.67;;;18.90;95.40;;;;;;5059224;28;20485;-79
2023/08/02 10:16:37;;;;;;;5.75;2.65;;;18.80;95.30;;;;;;5064243;28;20556;-79
2023/08/02 10:19:03;;;;;;;5.72;3.10;;;18.80;95.30;;;;;;5069228;28;20033;-79
2023/08/02 10:21:33;;;;;;;2.97;2.30;;;18.80;95.40;;;;;;5067906;28;20369;-79
2023/08/02 10:24:00;;;;;;;5.82;2.65;;;18.80;95.30;;;;;;5072811;28;20028;-79
2023/08/02 10:26:28;;;;;;;4.28;2.58;;;18.80;95.40;;;;;;5066890;28;20438;-79
2023/08/02 10:28:57;;;;;;;5.22;2.85;;;18.90;95.50;;;;;;5065143;28;20094;-78
2023/08/02 10:31:23;;;;;;;5.30;2.72;;;18.90;95.50;;;;;;5066786;28;21914;-79
2023/08/02 10:33:48;;;;;;;4.60;2.58;;;18.90;95.50;;;;;;5071727;28;20028;-79
2023/08/02 10:36:14;;;;;;;10.05;2.58;;;18.90;95.50;;;;;;5064241;28;20024;-78
2023/08/02 10:38:40;;;;;;;5.95;2.58;;;18.90;95.60;;;;;;5072525;28;20036;-78
2023/08/02 10:41:10;;;;;;;6.18;2.72;;;18.90;95.60;;;;;;5068600;28;20025;-79
2023/08/02 10:43:54;;;;;;;6.93;2.80;;;18.90;95.70;;;;;;5066669;28;20394;-78
2023/08/02 10:46:27;;;;;;;4.75;2.40;;;18.90;95.70;;;;;;5066411;28;20086;-79
2023/08/02 10:48:54;;;;;;;7.18;2.35;;;18.90;95.70;;;;;;5072332;28;20079;-79
2023/08/02 10:51:33;;;;;;;4.70;2.60;;;18.90;95.70;;;;;;5066965;28;20108;-80
2023/08/02 10:54:23;;;;;;;6.38;2.53;;;18.90;95.80;;;;;;5068618;28;20518;-78
2023/08/02 10:56:51;;;;;;;2.95;1.83;;;18.90;96.00;;;;;;5070174;28;20025;-79
2023/08/02 10:59:17;;;;;;;4.90;2.50;;;19.00;96.20;;;;;;5068737;28;20025;-78
2023/08/02 11:01:55;;;;;;;11.55;2.70;;;19.00;96.80;;;;;;5068320;28;20112;-78
2023/08/02 11:04:22;;;;;;;3.40;2.33;;;19.00;96.30;;;;;;5071734;28;20021;-79
2023/08/02 11:06:47;;;;;;;5.20;2.97;;;19.00;96.40;;;;;;5069952;28;20024;-79
2023/08/02 11:09:13;;;;;;;4.43;2.60;;;19.00;96.70;;;;;;5065427;28;20037;-78
2023/08/02 11:11:38;;;;;;;4.25;2.65;;;19.00;96.80;;;;;;5070578;28;20044;-80
2023/08/02 11:14:04;;;;;;;5.95;2.92;;;19.00;96.70;;;;;;5073029;28;20436;-79
2023/08/02 11:16:30;;;;;;;2.28;2.08;;;19.00;96.60;;;;;;5070236;28;20133;-79
2023/08/02 11:18:56;;;;;;;7.00;2.63;;;19.00;96.80;;;;;;5073144;28;20110;-79
2023/08/02 11:21:22;;;;;;;4.45;1.75;;;19.00;96.90;;;;;;5066052;28;20024;-78
2023/08/02 11:23:49;;;;;;;1.10;1.00;;;19.00;96.80;;;;;;5065767;28;20037;-77
2023/08/02 11:26:21;;;;;;;4.32;2.63;;;19.10;96.90;;;;;;5065379;28;20029;-80
2023/08/02 11:28:48;;;;;;;5.25;2.33;;;19.00;97.00;;;;;;5067661;28;20037;-79
2023/08/02 11:31:15;;;;;;;4.80;2.38;;;19.10;97.00;;;;;;5070238;28;20081;-79
2023/08/02 11:33:41;;;;;;;6.25;3.38;;;19.80;97.30;;;;;;5069352;28;20024;-80
2023/08/02 11:36:07;;;;;;;4.32;2.47;;;19.10;97.10;;;;;;5068564;28;20034;-79
2023/08/02 11:38:35;;;;;;;3.42;2.55;;;19.10;97.10;;;;;;5066246;28;20526;-77
2023/08/02 11:41:01;;;;;;;7.80;2.33;;;19.10;97.10;;;;;;5060185;28;20039;-80
2023/08/02 11:43:37;;;;;;;5.93;2.30;;;19.10;97.20;;;;;;5067642;28;20469;-79
2023/08/02 11:46:25;;;;;;;3.65;2.58;;;19.10;97.30;;;;;;5071603;28;20447;-79
2023/08/02 11:48:52;;;;;;;4.53;2.63;;;19.10;97.30;;;;;;5071678;28;20028;-78
2023/08/02 11:51:21;;;;;;;1.77;1.50;;;19.10;97.30;;;;;;5068196;28;20021;-78
2023/08/02 11:53:58;;;;;;;4.07;3.10;;;19.10;97.20;;;;;;5064217;28;20028;-79
2023/08/02 11:56:25;;;;;;;8.85;3.20;;;19.20;97.50;;;;;;5055947;28;20108;-80
2023/08/02 11:58:51;;;;;;;8.63;3.10;;;19.10;97.50;;;;;;5069660;28;20039;-79
2023/08/02 12:01:18;;;;;;;7.05;3.42;;;19.20;97.80;;;;;;5071764;28;20485;-80
2023/08/02 12:03:57;;;;;;;3.08;1.65;;;19.20;97.30;;;;;;5071593;28;20037;-77
2023/08/02 12:06:24;;;;;;;3.88;2.35;;;19.20;97.40;;;;;;5066600;28;20045;-80
2023/08/02 12:08:54;;;;;;;5.70;2.83;;;19.20;97.50;;;;;;5071229;28;20025;-80
2023/08/02 12:11:20;;;;;;;4.15;2.67;;;19.20;97.50;;;;;;5059918;28;20067;-79
2023/08/02 12:13:52;;;;;;;5.45;2.78;;;19.20;97.50;;;;;;5060942;28;20039;-79
2023/08/02 12:16:18;;;;;;;3.92;2.75;;;19.30;97.60;;;;;;5096512;28;20036;-80
2023/08/02 12:18:56;;;;;;;2.88;0.95;;;19.20;97.70;;;;;;5073872;28;20048;-80
2023/08/02 12:21:26;;;;;;;4.18;2.15;;;19.20;97.50;;;;;;5068456;28;20021;-80
2023/08/02 12:23:52;;;;;;;3.17;1.95;;;19.20;97.80;;;;;;5068509;28;20103;-79
2023/08/02 12:26:30;;;;;;;6.50;2.67;;;19.20;97.70;;;;;;5069517;28;20040;-78
2023/08/02 12:28:55;;;;;;;1.70;1.45;;;19.20;97.70;;;;;;5065680;28;20032;-79
2023/08/02 12:31:21;;;;;;;4.03;1.98;;;19.30;97.60;;;;;;5070932;28;20354;-78
2023/08/02 12:33:48;;;;;;;3.78;2.50;;;19.30;97.70;;;;;;5070538;28;20048;-79
2023/08/02 12:36:28;;;;;;;11.63;2.97;;;19.30;98.00;;;;;;5067043;28;20016;-80
2023/08/02 12:38:58;;;;;;;7.70;3.67;;;19.30;97.80;;;;;;5069451;28;20024;-79
2023/08/02 12:41:25;;;;;;;5.43;2.00;;;19.30;97.80;;;;;;5061806;28;20035;-79
2023/08/02 12:43:51;;;;;;;6.32;2.80;;;19.40;98.00;;;;;;5062208;28;20111;-80